createdAt,value
2022-12-25T00:02:25.532Z,22.05
2022-12-25T00:07:29.144Z,22.17
2022-12-25T00:12:32.440Z,25.10
2022-12-25T00:17:35.864Z,24.58
2022-12-25T00:22:39.836Z,22.88
2022-12-25T00:27:45.220Z,24.05
2022-12-25T00:32:48.726Z,21.95
2022-12-25T00:37:55.425Z,25.02
2022-12-25T00:42:58.788Z,25.27
2022-12-25T00:48:02.295Z,24.52
2022-12-25T00:53:05.696Z,26.30
2022-12-25T00:58:09.067Z,27.52
2022-12-25T01:03:14.833Z,26.33
2022-12-25T01:08:18.503Z,27.92
2022-12-25T01:13:33.077Z,27.90
2022-12-25T01:18:47.478Z,26.63
2022-12-25T01:23:53.274Z,26.03
2022-12-25T01:28:57.316Z,25.85
2022-12-25T01:34:00.599Z,23.58
2022-12-25T01:39:04.933Z,23.20
2022-12-25T01:44:36.837Z,23.95
2022-12-25T01:49:43.024Z,25.42
2022-12-25T01:54:51.287Z,23.75
2022-12-25T02:00:06.607Z,22.08
2022-12-25T02:05:21.097Z,21.95
2022-12-25T02:10:24.788Z,25.73
2022-12-25T02:16:03.568Z,25.55
2022-12-25T02:21:27.074Z,23.13
2022-12-25T02:26:52.408Z,21.80
2022-12-25T02:32:03.650Z,22.85
2022-12-25T02:37:20.660Z,24.63
2022-12-25T02:42:57.146Z,33.63
2022-12-25T02:48:19.485Z,19.90
2022-12-25T02:53:41.666Z,23.63
2022-12-25T02:59:05.376Z,23.58
2022-12-25T03:04:34.555Z,25.42
2022-12-25T03:10:08.462Z,26.17
2022-12-25T03:15:32.191Z,25.73
2022-12-25T03:20:54.632Z,26.40
2022-12-25T03:26:16.424Z,25.23
2022-12-25T03:31:50.119Z,25.35
2022-12-25T03:37:41.571Z,25.08
2022-12-25T03:43:14.292Z,27.88
2022-12-25T03:48:37.246Z,23.83
2022-12-25T03:54:04.706Z,24.92
2022-12-25T03:59:26.809Z,25.90
2022-12-25T04:04:48.555Z,35.38
2022-12-25T04:10:10.390Z,31.00
2022-12-25T04:15:32.291Z,31.00
2022-12-25T04:20:54.197Z,25.92
2022-12-25T04:26:26.101Z,26.48
2022-12-25T04:31:47.949Z,25.13
2022-12-25T04:36:51.492Z,24.52
2022-12-25T04:41:56.831Z,24.08
2022-12-25T04:47:01.154Z,24.52
2022-12-25T04:52:07.344Z,24.48
2022-12-25T04:57:11.377Z,25.57
2022-12-25T05:02:14.713Z,24.60
2022-12-25T05:07:18.526Z,24.02
2022-12-25T05:12:31.964Z,25.13
2022-12-25T05:17:35.303Z,24.15
2022-12-25T05:22:38.782Z,23.38
2022-12-25T05:27:42.205Z,24.35
2022-12-25T05:32:45.486Z,23.30
2022-12-25T05:37:48.903Z,24.15
2022-12-25T05:42:52.265Z,26.55
2022-12-25T05:48:05.896Z,27.25
2022-12-25T05:53:19.164Z,28.05
2022-12-25T05:58:22.676Z,26.00
2022-12-25T06:03:26.938Z,22.75
2022-12-25T06:08:30.287Z,23.53
2022-12-25T06:13:35.786Z,24.60
2022-12-25T06:18:41.447Z,23.02
2022-12-25T06:23:45.504Z,26.60
2022-12-25T06:28:49.307Z,26.53
2022-12-25T06:33:52.621Z,27.35
2022-12-25T06:38:56.223Z,27.20
2022-12-25T06:44:01.391Z,26.92
2022-12-25T06:49:04.899Z,27.75
2022-12-25T06:54:09.815Z,71.40
2022-12-25T07:04:39.622Z,31.10
2022-12-25T07:09:43.515Z,24.05
2022-12-25T07:14:49.951Z,34.55
2022-12-25T07:19:53.588Z,31.55
2022-12-25T07:25:00.151Z,29.20
2022-12-25T07:30:03.529Z,26.17
2022-12-25T07:35:07.154Z,21.55
2022-12-25T07:40:11.108Z,25.23
2022-12-25T07:45:14.373Z,25.42
2022-12-25T07:50:18.177Z,41.85
2022-12-25T07:55:22.560Z,38.97
2022-12-25T08:00:33.637Z,45.20
2022-12-25T08:05:37.163Z,41.28
2022-12-25T08:10:49.195Z,34.72
2022-12-25T08:15:58.225Z,31.33
2022-12-25T08:21:07.387Z,20.15
2022-12-25T08:26:14.689Z,20.00
2022-12-25T08:31:27.824Z,21.45
2022-12-25T08:36:31.720Z,21.50
2022-12-25T08:41:37.311Z,20.77
2022-12-25T08:46:50.572Z,20.98
2022-12-25T08:51:54.059Z,21.02
2022-12-25T08:57:02.436Z,19.98
2022-12-25T09:02:06.624Z,17.77
2022-12-25T09:07:09.973Z,19.42
2022-12-25T09:12:13.295Z,22.10
2022-12-25T09:17:26.742Z,19.08
2022-12-25T09:22:30.051Z,19.67
2022-12-25T09:27:33.307Z,18.88
2022-12-25T09:32:46.793Z,22.77
2022-12-25T09:37:50.169Z,19.88
2022-12-25T09:42:55.489Z,18.55
2022-12-25T09:47:58.805Z,25.00
2022-12-25T09:53:08.313Z,38.60
2022-12-25T09:58:13.726Z,25.75
2022-12-25T10:03:48.340Z,24.83
2022-12-25T10:08:57.519Z,23.40
2022-12-25T10:14:19.291Z,28.30
2022-12-25T10:19:25.623Z,34.55
2022-12-25T10:24:33.714Z,26.95
2022-12-25T10:29:37.154Z,25.92
2022-12-25T10:34:42.667Z,22.70
2022-12-25T10:39:47.179Z,22.45
2022-12-25T10:44:57.673Z,26.33
2022-12-25T10:50:07.850Z,21.35
2022-12-25T10:55:13.673Z,19.58
2022-12-25T11:00:25.170Z,17.73
2022-12-25T11:05:34.538Z,18.45
2022-12-25T11:10:42.962Z,15.32
2022-12-25T11:15:49.999Z,15.07
2022-12-25T11:21:14.151Z,14.02
2022-12-25T11:26:19.457Z,13.40
2022-12-25T11:31:44.469Z,12.85
2022-12-25T11:36:50.262Z,10.90
2022-12-25T11:41:59.906Z,11.43
2022-12-25T11:47:14.391Z,10.98
2022-12-25T11:52:18.827Z,12.50
2022-12-25T11:57:27.128Z,9.95
2022-12-25T12:02:44.798Z,11.18
2022-12-25T12:08:01.185Z,9.48
2022-12-25T12:13:42.927Z,10.45
2022-12-25T12:18:50.567Z,10.80
2022-12-25T12:24:02.605Z,11.68
2022-12-25T12:29:09.043Z,9.30
2022-12-25T12:34:24.969Z,9.43
2022-12-25T12:39:36.228Z,10.02
2022-12-25T12:44:39.641Z,9.32
2022-12-25T12:49:42.874Z,11.00
2022-12-25T12:55:03.406Z,12.02
2022-12-25T13:00:17.857Z,13.45
2022-12-25T13:06:12.450Z,12.02
2022-12-25T13:11:27.622Z,12.43
2022-12-25T13:16:36.228Z,13.00
2022-12-25T13:21:39.844Z,15.43
2022-12-25T13:26:43.125Z,16.77
2022-12-25T13:31:46.736Z,17.17
2022-12-25T13:36:52.830Z,17.48
2022-12-25T13:42:12.418Z,16.42
2022-12-25T13:47:38.541Z,17.35
2022-12-25T13:52:42.421Z,28.13
2022-12-25T13:57:52.316Z,38.92
2022-12-25T14:02:58.097Z,39.60
2022-12-25T14:08:04.207Z,40.10
2022-12-25T14:13:20.464Z,40.97
2022-12-25T14:18:25.187Z,40.03
2022-12-25T14:23:48.308Z,39.50
2022-12-25T14:28:55.208Z,37.80
2022-12-25T14:34:00.659Z,37.95
2022-12-25T14:39:07.148Z,35.08
2022-12-25T14:44:34.453Z,31.73
2022-12-25T14:49:38.328Z,30.15
2022-12-25T14:54:46.494Z,33.00
2022-12-25T14:59:57.467Z,30.80
2022-12-25T15:05:00.797Z,28.10
2022-12-25T15:10:57.586Z,29.27
2022-12-25T15:15:37.326Z,36.75
2022-12-25T15:20:40.790Z,30.73
2022-12-25T15:25:44.648Z,30.65
2022-12-25T15:30:48.488Z,39.67
2022-12-25T15:36:01.981Z,44.80
2022-12-25T15:41:11.059Z,44.53
2022-12-25T15:46:14.409Z,78.80
2022-12-25T15:51:17.671Z,55.35
2022-12-25T15:56:21.365Z,51.50
2022-12-25T16:01:24.725Z,42.50
2022-12-25T16:06:28.192Z,122.47
2022-12-25T16:11:32.291Z,179.20
2022-12-25T16:16:36.247Z,72.57
2022-12-25T16:21:45.735Z,47.90
2022-12-25T16:26:49.181Z,54.28
2022-12-25T16:32:02.649Z,35.75
2022-12-25T16:37:06.521Z,34.55
2022-12-25T16:42:09.987Z,33.23
2022-12-25T16:47:15.219Z,35.30
2022-12-25T16:52:18.622Z,34.05
2022-12-25T16:57:22.104Z,33.75
2022-12-25T17:02:25.821Z,32.83
2022-12-25T17:07:40.054Z,33.90
2022-12-25T17:12:46.392Z,34.10
2022-12-25T17:17:49.772Z,32.33
2022-12-25T17:22:53.241Z,32.72
2022-12-25T17:27:56.625Z,29.60
2022-12-25T17:33:00.030Z,32.60
2022-12-25T17:38:04.557Z,32.03
2022-12-25T17:43:08.423Z,29.73
2022-12-25T17:48:11.871Z,31.80
2022-12-25T17:53:15.631Z,30.38
2022-12-25T17:58:19.049Z,29.45
2022-12-25T18:03:23.460Z,32.03
2022-12-25T18:08:26.862Z,37.30
2022-12-25T18:13:30.413Z,32.33
2022-12-25T18:18:36.027Z,34.85
2022-12-25T18:23:39.782Z,30.95
2022-12-25T18:28:54.422Z,35.60
2022-12-25T18:33:59.803Z,35.97
2022-12-25T18:39:03.540Z,36.70
2022-12-25T18:44:06.812Z,37.67
2022-12-25T18:49:12.055Z,36.13
2022-12-25T18:54:15.434Z,37.45
2022-12-25T18:59:19.578Z,37.28
2022-12-25T19:04:23.001Z,36.57
2022-12-25T19:09:29.951Z,36.63
2022-12-25T19:14:48.026Z,38.17
2022-12-25T19:19:54.085Z,40.80
2022-12-25T19:24:57.595Z,40.90
2022-12-25T19:30:01.011Z,43.65
2022-12-25T19:35:13.721Z,41.67
2022-12-25T19:40:27.255Z,39.58
2022-12-25T19:45:30.917Z,36.55
2022-12-25T19:50:39.413Z,38.72
2022-12-25T19:55:43.201Z,41.03
2022-12-25T20:00:46.827Z,46.65
2022-12-25T20:05:52.917Z,55.75
2022-12-25T20:10:56.255Z,66.38
2022-12-25T20:16:02.988Z,53.65
2022-12-25T20:21:14.904Z,58.83
2022-12-25T20:26:20.689Z,55.15
2022-12-25T20:31:28.007Z,51.25
2022-12-25T20:36:36.817Z,63.10
2022-12-25T20:41:41.464Z,74.25
2022-12-25T20:46:45.364Z,62.65
2022-12-25T20:51:49.261Z,51.77
2022-12-25T20:57:02.345Z,49.78
2022-12-25T21:02:34.769Z,56.80
2022-12-25T21:07:39.055Z,50.75
2022-12-25T21:12:42.347Z,50.55
2022-12-25T21:17:45.958Z,46.25
2022-12-25T21:22:49.232Z,47.75
2022-12-25T21:27:52.631Z,48.58
2022-12-25T21:33:17.058Z,49.50
2022-12-25T21:38:20.630Z,47.20
2022-12-25T21:43:24.019Z,47.72
2022-12-25T21:48:27.279Z,49.72
2022-12-25T21:53:30.539Z,45.70
2022-12-25T21:58:33.956Z,52.03
2022-12-25T22:03:37.566Z,49.78
2022-12-25T22:08:41.179Z,49.88
2022-12-25T22:14:05.891Z,47.95
2022-12-25T22:19:28.910Z,50.30
2022-12-25T22:24:42.397Z,49.97
2022-12-25T22:29:46.132Z,48.80
2022-12-25T22:34:52.589Z,49.63
2022-12-25T22:39:56.542Z,50.40
2022-12-25T22:44:59.890Z,52.00
2022-12-25T22:50:04.754Z,49.60
2022-12-25T22:55:10.077Z,53.17
2022-12-25T23:00:14.417Z,54.50
2022-12-25T23:05:17.750Z,58.80
2022-12-25T23:10:31.516Z,59.25
2022-12-25T23:15:34.977Z,55.65
2022-12-25T23:20:57.337Z,60.03
2022-12-25T23:26:11.443Z,64.30
2022-12-25T23:31:15.433Z,61.03
2022-12-25T23:36:19.148Z,66.43
2022-12-25T23:41:32.882Z,66.80
2022-12-25T23:46:37.096Z,64.88
2022-12-25T23:51:45.434Z,65.47
2022-12-25T23:56:56.153Z,66.03
